Time;durP1;ratioP1;P1;durP2;ratioP2;P2;SDS_P1;SDS_P2;PMS_P1;PMS_P2;Temp;Humidity;BMP_temperature;BMP_pressure;BME280_temperature;BME280_humidity;BME280_pressure;Samples;Min_cycle;Max_cycle;Signal;HPM_P1;HPM_P2
2022/08/12 00:43:12;;;;;;;8.07;2.60;;;;;;;;;;3366362;42;20103;-56
2022/08/12 00:48:33;;;;;;;8.85;2.80;;;;;;;;;;3379122;42;20097;-56
2022/08/12 00:51:04;;;;;;;8.70;2.90;;;;;;;;;;3364253;42;20110;-60
2022/08/12 00:53:36;;;;;;;7.68;2.97;;;;;;;;;;3372911;42;20106;-55
2022/08/12 00:56:08;;;;;;;9.68;2.78;;;;;;;;;;3369693;42;20103;-53
2022/08/12 00:58:45;;;;;;;7.13;2.70;;;;;;;;;;3372853;42;20138;-53
2022/08/12 01:01:16;;;;;;;6.88;2.70;;;;;;;;;;3367941;42;20556;-58
2022/08/12 01:12:16;;;;;;;8.57;3.00;;;;;;;;;;3373612;42;20117;-54
2022/08/12 01:14:47;;;;;;;7.82;2.60;;;;;;;;;;3361187;42;20142;-56
2022/08/12 01:17:20;;;;;;;9.05;2.78;;;;;;;;;;3367787;42;20147;-56
2022/08/12 01:19:51;;;;;;;7.93;2.65;;;;;;;;;;3369131;42;20290;-56
2022/08/12 01:22:30;;;;;;;7.95;2.72;;;;;;;;;;3367710;42;20585;-55
2022/08/12 01:25:11;;;;;;;7.47;2.73;;;;;;;;;;3361474;42;20103;-58
2022/08/12 01:27:42;;;;;;;7.75;3.30;;;;;;;;;;3368489;42;20218;-58
2022/08/12 01:30:14;;;;;;;7.13;2.90;;;;;;;;;;3363565;42;20099;-56
2022/08/12 01:32:46;;;;;;;6.68;2.60;;;;;;;;;;3374883;42;20099;-54
2022/08/12 01:35:17;;;;;;;8.25;2.85;;;;;;;;;;3375697;42;20109;-56
2022/08/12 01:38:03;;;;;;;9.17;2.87;;;;;;;;;;3366413;42;20561;-54
2022/08/12 01:40:37;;;;;;;7.28;2.90;;;;;;;;;;3368150;42;20111;-57
2022/08/12 01:43:09;;;;;;;7.40;2.58;;;;;;;;;;3368012;42;20099;-57
2022/08/12 01:46:07;;;;;;;7.93;2.70;;;;;;;;;;3372357;42;20173;-52
2022/08/12 01:48:49;;;;;;;7.43;2.80;;;;;;;;;;3374169;42;20107;-56
2022/08/12 01:51:41;;;;;;;8.07;2.87;;;;;;;;;;3367708;42;20620;-54
2022/08/12 01:54:16;;;;;;;6.32;2.60;;;;;;;;;;3372957;42;20095;-57
2022/08/12 01:56:51;;;;;;;8.43;2.92;;;;;;;;;;3374154;42;20647;-54
2022/08/12 01:59:55;;;;;;;9.55;3.05;;;;;;;;;;3384615;42;20110;-56
2022/08/12 02:02:29;;;;;;;7.22;2.72;;;;;;;;;;3375004;42;20508;-56
2022/08/12 02:11:51;;;;;;;7.70;2.78;;;;;;;;;;3372109;42;20106;-55
2022/08/12 02:14:46;;;;;;;8.07;2.85;;;;;;;;;;3351127;42;20092;-55
2022/08/12 02:17:41;;;;;;;7.13;2.70;;;;;;;;;;3375494;42;20094;-57
2022/08/12 02:20:20;;;;;;;7.73;2.90;;;;;;;;;;3357167;42;20113;-56
2022/08/12 02:22:51;;;;;;;8.23;2.97;;;;;;;;;;3372387;42;20117;-56
2022/08/12 02:25:32;;;;;;;7.85;2.58;;;;;;;;;;3361510;42;20158;-57
2022/08/12 02:28:04;;;;;;;7.07;2.53;;;;;;;;;;3375384;42;20127;-56
2022/08/12 02:30:36;;;;;;;6.43;2.65;;;;;;;;;;3368215;42;20086;-57
2022/08/12 02:33:07;;;;;;;7.47;2.77;;;;;;;;;;3375106;42;20150;-55
2022/08/12 02:35:38;;;;;;;6.40;2.72;;;;;;;;;;3373572;42;20169;-57
2022/08/12 02:38:10;;;;;;;15.20;3.00;;;;;;;;;;3374781;42;20090;-56
2022/08/12 02:40:44;;;;;;;6.13;2.40;;;;;;;;;;3375004;42;20095;-55
2022/08/12 02:43:33;;;;;;;7.05;2.50;;;;;;;;;;3361371;42;20145;-56
2022/08/12 02:46:09;;;;;;;7.63;2.53;;;;;;;;;;3367127;42;20094;-56
2022/08/12 02:48:40;;;;;;;7.45;2.60;;;;;;;;;;3378167;42;20102;-56
2022/08/12 02:51:13;;;;;;;8.82;2.50;;;;;;;;;;3377906;42;20105;-56
2022/08/12 02:53:44;;;;;;;8.85;2.50;;;;;;;;;;3368601;42;20091;-54
2022/08/12 02:56:16;;;;;;;7.68;2.53;;;;;;;;;;3368270;42;20097;-56
2022/08/12 02:58:47;;;;;;;6.30;2.37;;;;;;;;;;3367899;42;20095;-56
2022/08/12 03:01:32;;;;;;;8.68;2.63;;;;;;;;;;3376802;42;20184;-55
2022/08/12 03:04:08;;;;;;;6.72;2.67;;;;;;;;;;3376629;42;20109;-57
2022/08/12 03:06:42;;;;;;;8.20;2.63;;;;;;;;;;3375162;42;20087;-58
2022/08/12 03:09:13;;;;;;;7.07;2.67;;;;;;;;;;3376201;42;20095;-56
2022/08/12 03:11:58;;;;;;;9.50;2.80;;;;;;;;;;3369839;42;20172;-56
2022/08/12 03:14:29;;;;;;;6.32;2.60;;;;;;;;;;3369785;42;20095;-55
2022/08/12 03:17:24;;;;;;;6.85;2.78;;;;;;;;;;3365572;42;20102;-55
2022/08/12 03:19:56;;;;;;;6.60;2.63;;;;;;;;;;3370420;42;20663;-56
2022/08/12 03:22:27;;;;;;;6.47;2.40;;;;;;;;;;3376653;42;20134;-56
2022/08/12 03:25:02;;;;;;;8.57;2.90;;;;;;;;;;3369660;42;20107;-54
2022/08/12 03:27:33;;;;;;;12.10;2.75;;;;;;;;;;3369695;42;20117;-55
2022/08/12 03:30:05;;;;;;;11.93;2.75;;;;;;;;;;3360769;42;20079;-56
2022/08/12 03:32:37;;;;;;;6.63;2.50;;;;;;;;;;3368480;42;20508;-53
2022/08/12 03:35:08;;;;;;;9.45;2.60;;;;;;;;;;3360726;42;20134;-56
2022/08/12 03:37:39;;;;;;;8.37;2.67;;;;;;;;;;3368760;42;20604;-55
2022/08/12 03:41:32;;;;;;;6.25;2.40;;;;;;;;;;3362314;42;20103;-56
2022/08/12 04:03:00;;;;;;;6.60;2.60;;;;;;;;;;3373245;42;20594;-60
2022/08/12 04:05:32;;;;;;;9.17;2.50;;;;;;;;;;3371496;42;20099;-59
2022/08/12 04:08:03;;;;;;;8.02;2.63;;;;;;;;;;3376001;42;20612;-58
2022/08/12 04:13:24;;;;;;;7.72;2.63;;;;;;;;;;3370089;42;20075;-57
2022/08/12 04:15:55;;;;;;;8.05;2.60;;;;;;;;;;3374188;42;20561;-59
2022/08/12 04:18:27;;;;;;;10.10;2.50;;;;;;;;;;3363604;42;20110;-59
2022/08/12 04:20:58;;;;;;;6.78;2.35;;;;;;;;;;3375198;42;20528;-59
2022/08/12 04:23:29;;;;;;;7.25;2.42;;;;;;;;;;3376048;42;20508;-58
2022/08/12 04:26:00;;;;;;;6.72;2.58;;;;;;;;;;3362129;42;20635;-56
2022/08/12 04:28:31;;;;;;;7.07;2.33;;;;;;;;;;3376137;42;20188;-57
2022/08/12 04:31:03;;;;;;;10.03;2.90;;;;;;;;;;3375967;42;20566;-56
2022/08/12 04:33:35;;;;;;;8.10;2.70;;;;;;;;;;3376192;42;20212;-58
2022/08/12 04:36:06;;;;;;;7.53;2.60;;;;;;;;;;3368848;42;20168;-57
2022/08/12 04:38:37;;;;;;;8.10;2.60;;;;;;;;;;3374938;42;20075;-60
2022/08/12 04:41:09;;;;;;;5.55;2.40;;;;;;;;;;3375965;42;20099;-59
2022/08/12 04:43:40;;;;;;;8.53;2.80;;;;;;;;;;3373586;42;20110;-60
2022/08/12 04:46:11;;;;;;;6.72;2.65;;;;;;;;;;3374181;42;20586;-58
2022/08/12 04:48:43;;;;;;;7.07;2.72;;;;;;;;;;3379709;42;20091;-58
2022/08/12 04:51:14;;;;;;;9.60;2.90;;;;;;;;;;3379390;42;20627;-59
2022/08/12 04:53:48;;;;;;;7.18;2.58;;;;;;;;;;3373952;42;20091;-58
2022/08/12 04:56:19;;;;;;;8.57;2.60;;;;;;;;;;3362980;42;20157;-59
2022/08/12 04:58:51;;;;;;;7.50;2.40;;;;;;;;;;3372027;42;20090;-59
2022/08/12 05:01:26;;;;;;;6.15;2.65;;;;;;;;;;3371819;42;20615;-59
2022/08/12 05:03:57;;;;;;;7.78;2.30;;;;;;;;;;3372135;42;20118;-59
2022/08/12 05:29:15;;;;;;;19.02;3.53;;;;;;;;;;3023560;40;20390;-58
2022/08/12 05:31:51;;;;;;;6.13;2.60;;;;;;;;;;3381339;42;20083;-61
2022/08/12 05:34:22;;;;;;;19.40;3.75;;;;;;;;;;3381930;42;20573;-60
2022/08/12 05:36:54;;;;;;;6.75;2.80;;;;;;;;;;3379033;42;20098;-53
2022/08/12 05:39:25;;;;;;;7.97;2.55;;;;;;;;;;3373461;42;20109;-56
2022/08/12 05:41:56;;;;;;;7.72;3.08;;;;;;;;;;3376791;42;20091;-57
2022/08/12 05:44:27;;;;;;;7.32;2.85;;;;;;;;;;3375255;42;20604;-57
2022/08/12 05:46:59;;;;;;;6.35;2.60;;;;;;;;;;3387833;42;20115;-58
2022/08/12 05:49:32;;;;;;;8.57;3.28;;;;;;;;;;3380671;42;20095;-58
2022/08/12 05:52:03;;;;;;;10.50;3.20;;;;;;;;;;3379732;42;20095;-57
2022/08/12 05:54:37;;;;;;;7.15;2.70;;;;;;;;;;3378989;42;20106;-57
2022/08/12 05:57:10;;;;;;;8.07;2.40;;;;;;;;;;3384090;42;20560;-57
2022/08/12 05:59:41;;;;;;;7.53;3.00;;;;;;;;;;3375755;42;20113;-60
2022/08/12 06:02:13;;;;;;;7.18;2.80;;;;;;;;;;3380053;42;20198;-57
2022/08/12 06:04:44;;;;;;;8.80;2.97;;;;;;;;;;3386372;42;20140;-58
2022/08/12 06:07:15;;;;;;;7.05;2.60;;;;;;;;;;3380577;42;20099;-59
2022/08/12 06:09:46;;;;;;;8.43;3.03;;;;;;;;;;3379873;42;20095;-58
2022/08/12 06:12:22;;;;;;;8.57;2.90;;;;;;;;;;3378653;42;20150;-59
2022/08/12 06:14:54;;;;;;;7.03;2.70;;;;;;;;;;3387011;42;20552;-58
2022/08/12 06:17:25;;;;;;;7.18;2.85;;;;;;;;;;3377388;42;20099;-60
2022/08/12 06:19:57;;;;;;;6.40;2.67;;;;;;;;;;3370883;42;20099;-60
2022/08/12 06:22:28;;;;;;;8.63;2.70;;;;;;;;;;3378303;42;20135;-59
2022/08/12 06:24:59;;;;;;;7.65;2.90;;;;;;;;;;3368076;42;20114;-59
2022/08/12 06:27:30;;;;;;;7.63;3.00;;;;;;;;;;3366055;42;20505;-61
2022/08/12 06:30:02;;;;;;;9.98;2.88;;;;;;;;;;3361492;42;20102;-61
2022/08/12 06:32:33;;;;;;;10.35;2.70;;;;;;;;;;3367055;42;20577;-60
2022/08/12 06:35:05;;;;;;;11.80;3.45;;;;;;;;;;3360963;42;20566;-60
2022/08/12 06:37:41;;;;;;;10.20;2.88;;;;;;;;;;3360396;42;20159;-59
2022/08/12 06:40:12;;;;;;;7.13;2.70;;;;;;;;;;3363879;42;20088;-60
2022/08/12 06:42:53;;;;;;;8.45;2.97;;;;;;;;;;3365129;42;20182;-61
2022/08/12 06:45:25;;;;;;;9.50;2.80;;;;;;;;;;3358236;42;20905;-63
2022/08/12 06:47:58;;;;;;;7.75;2.53;;;;;;;;;;3368596;42;20151;-62
2022/08/12 06:50:30;;;;;;;10.07;3.10;;;;;;;;;;3367958;42;20160;-61
2022/08/12 06:53:03;;;;;;;7.77;2.40;;;;;;;;;;3368438;42;20540;-62
2022/08/12 06:55:35;;;;;;;8.57;3.22;;;;;;;;;;3363892;42;20111;-60
2022/08/12 06:58:06;;;;;;;10.60;3.25;;;;;;;;;;3370127;42;20174;-59
2022/08/12 07:00:37;;;;;;;6.97;2.38;;;;;;;;;;3370025;42;20115;-60
2022/08/12 07:03:08;;;;;;;8.43;2.65;;;;;;;;;;3363629;42;20084;-59
2022/08/12 07:05:41;;;;;;;6.67;2.20;;;;;;;;;;3364348;42;20227;-59
2022/08/12 07:08:12;;;;;;;6.25;2.50;;;;;;;;;;3362479;42;20110;-60
2022/08/12 07:10:57;;;;;;;10.98;2.97;;;;;;;;;;3357253;42;20096;-57
2022/08/12 07:13:42;;;;;;;7.93;3.17;;;;;;;;;;3358039;42;20145;-58
2022/08/12 07:16:15;;;;;;;7.22;2.60;;;;;;;;;;3368210;42;20110;-61
2022/08/12 07:18:49;;;;;;;8.00;3.00;;;;;;;;;;3357922;42;20565;-59
2022/08/12 07:21:20;;;;;;;7.15;2.38;;;;;;;;;;3368865;42;20633;-59
2022/08/12 07:23:51;;;;;;;6.90;2.60;;;;;;;;;;3367530;42;20526;-58
2022/08/12 07:26:22;;;;;;;8.30;2.60;;;;;;;;;;3365430;42;20107;-61
2022/08/12 07:28:53;;;;;;;7.80;2.60;;;;;;;;;;3364750;42;20107;-59
2022/08/12 07:31:26;;;;;;;7.07;2.60;;;;;;;;;;3364775;42;20159;-58
2022/08/12 07:33:58;;;;;;;7.18;2.70;;;;;;;;;;3364992;42;20096;-60
2022/08/12 07:36:32;;;;;;;7.78;2.70;;;;;;;;;;3372478;42;20616;-59
2022/08/12 07:39:03;;;;;;;7.22;2.65;;;;;;;;;;3370548;42;20088;-58
2022/08/12 07:41:34;;;;;;;7.47;2.90;;;;;;;;;;3371638;42;20553;-56
2022/08/12 07:44:07;;;;;;;7.37;2.90;;;;;;;;;;3365660;42;20091;-57
2022/08/12 07:46:42;;;;;;;7.72;2.97;;;;;;;;;;3363897;42;20102;-57
2022/08/12 07:49:14;;;;;;;13.50;3.47;;;;;;;;;;3364018;42;20104;-58
2022/08/12 07:51:45;;;;;;;8.95;3.03;;;;;;;;;;3371715;42;20579;-57
2022/08/12 07:54:16;;;;;;;10.52;2.90;;;;;;;;;;3358950;42;20122;-57
2022/08/12 07:56:48;;;;;;;6.40;2.60;;;;;;;;;;3364553;42;20111;-56
2022/08/12 07:59:19;;;;;;;8.52;2.60;;;;;;;;;;3362170;42;20624;-56
2022/08/12 08:01:51;;;;;;;9.57;3.00;;;;;;;;;;3361979;42;20087;-56
2022/08/12 08:07:15;;;;;;;9.77;2.92;;;;;;;;;;3366739;42;20099;-55
2022/08/12 08:09:46;;;;;;;7.43;2.80;;;;;;;;;;3358904;42;20169;-57
2022/08/12 08:15:09;;;;;;;12.63;2.95;;;;;;;;;;3360720;42;20087;-58
2022/08/12 08:18:00;;;;;;;8.63;2.80;;;;;;;;;;3364364;42;20173;-61
2022/08/12 08:20:40;;;;;;;7.68;2.80;;;;;;;;;;3364278;42;20087;-58
2022/08/12 08:23:14;;;;;;;7.57;2.60;;;;;;;;;;3368141;42;20146;-57
2022/08/12 08:25:45;;;;;;;7.05;2.58;;;;;;;;;;3362737;42;20151;-58
2022/08/12 08:28:16;;;;;;;8.05;2.92;;;;;;;;;;3357504;42;20182;-58
2022/08/12 08:30:48;;;;;;;6.65;2.80;;;;;;;;;;3362341;42;20159;-58
2022/08/12 08:33:19;;;;;;;9.00;2.80;;;;;;;;;;3365919;42;20084;-58
2022/08/12 08:35:50;;;;;;;8.57;2.50;;;;;;;;;;3374152;42;20207;-58
2022/08/12 08:38:21;;;;;;;7.97;2.60;;;;;;;;;;3351562;42;20123;-57
2022/08/12 08:43:42;;;;;;;7.10;2.50;;;;;;;;;;3371025;42;20125;-59
2022/08/12 08:46:13;;;;;;;8.23;2.30;;;;;;;;;;3361250;42;20487;-57
2022/08/12 08:48:44;;;;;;;4.90;2.10;;;;;;;;;;3358818;42;20095;-58
2022/08/12 08:51:16;;;;;;;5.40;2.15;;;;;;;;;;3367031;42;20691;-59
2022/08/12 08:53:47;;;;;;;6.35;2.50;;;;;;;;;;3368553;42;20131;-57
2022/08/12 08:56:18;;;;;;;7.20;2.33;;;;;;;;;;3366363;42;20098;-58
2022/08/12 08:58:50;;;;;;;9.75;2.50;;;;;;;;;;3359449;42;20107;-59
2022/08/12 09:01:21;;;;;;;6.23;2.50;;;;;;;;;;3367089;42;20127;-57
2022/08/12 09:03:53;;;;;;;6.97;2.40;;;;;;;;;;3358314;42;20274;-58
2022/08/12 09:06:24;;;;;;;6.43;2.42;;;;;;;;;;3357434;42;20096;-59
2022/08/12 09:08:55;;;;;;;7.43;2.47;;;;;;;;;;3361998;42;20104;-58
2022/08/12 09:14:16;;;;;;;10.30;2.70;;;;;;;;;;3363658;42;20253;-58
2022/08/12 09:16:49;;;;;;;5.93;2.40;;;;;;;;;;3363777;42;20165;-57
2022/08/12 09:19:20;;;;;;;6.40;2.20;;;;;;;;;;3364192;42;20092;-58
2022/08/12 09:21:51;;;;;;;9.60;2.20;;;;;;;;;;3364747;42;20099;-58
2022/08/12 09:24:23;;;;;;;8.80;2.40;;;;;;;;;;3364152;42;20525;-57
2022/08/12 09:26:54;;;;;;;6.67;2.27;;;;;;;;;;3362661;42;20617;-58
2022/08/12 09:29:25;;;;;;;7.50;2.50;;;;;;;;;;3359148;42;20110;-61
2022/08/12 09:31:56;;;;;;;7.68;2.53;;;;;;;;;;3367779;42;20096;-57
2022/08/12 09:34:29;;;;;;;8.23;2.50;;;;;;;;;;3360758;42;20191;-57
2022/08/12 09:37:01;;;;;;;6.90;2.35;;;;;;;;;;3358994;42;20104;-58
2022/08/12 09:39:32;;;;;;;7.63;2.30;;;;;;;;;;3364914;42;20109;-57
2022/08/12 09:47:44;;;;;;;6.68;2.15;;;;;;;;;;3373373;42;20084;-57
2022/08/12 09:50:16;;;;;;;6.97;2.40;;;;;;;;;;3358659;42;20624;-56
2022/08/12 09:52:51;;;;;;;7.63;2.33;;;;;;;;;;3362004;42;20115;-59
2022/08/12 09:55:22;;;;;;;5.80;2.20;;;;;;;;;;3346526;42;20106;-57
2022/08/12 09:57:53;;;;;;;6.20;2.30;;;;;;;;;;3359638;42;20147;-58
2022/08/12 10:00:26;;;;;;;6.65;2.42;;;;;;;;;;3364773;42;20611;-58
2022/08/12 10:02:58;;;;;;;6.60;2.35;;;;;;;;;;3362864;42;20170;-58
2022/08/12 10:05:32;;;;;;;6.40;2.60;;;;;;;;;;3365361;42;20194;-58
2022/08/12 10:08:03;;;;;;;6.47;2.55;;;;;;;;;;3359031;42;20095;-57
2022/08/12 10:13:43;;;;;;;7.97;3.55;;;;;;;;;;3371624;42;20111;-57
2022/08/12 10:16:17;;;;;;;10.65;4.22;;;;;;;;;;3373268;42;20122;-57
2022/08/12 10:18:52;;;;;;;6.00;2.30;;;;;;;;;;3371221;42;20096;-57
2022/08/12 10:21:33;;;;;;;8.40;2.63;;;;;;;;;;3365330;42;20114;-57
2022/08/12 10:24:06;;;;;;;7.15;2.53;;;;;;;;;;3365650;42;20096;-56
2022/08/12 10:29:44;;;;;;;7.00;2.95;;;;;;;;;;3373005;42;20099;-57
2022/08/12 10:32:19;;;;;;;8.37;2.60;;;;;;;;;;3365643;42;20148;-57
2022/08/12 10:34:51;;;;;;;8.88;3.00;;;;;;;;;;3372992;42;20139;-58
2022/08/12 10:37:22;;;;;;;9.57;2.60;;;;;;;;;;3365532;42;20501;-56
2022/08/12 10:39:53;;;;;;;8.23;2.60;;;;;;;;;;3365543;42;20159;-59
2022/08/12 10:45:15;;;;;;;9.37;2.90;;;;;;;;;;3365710;42;20102;-58
2022/08/12 10:47:51;;;;;;;6.82;2.70;;;;;;;;;;3356721;42;20548;-57
2022/08/12 10:50:24;;;;;;;7.47;2.70;;;;;;;;;;3357129;42;20159;-58
2022/08/12 10:52:55;;;;;;;8.77;2.72;;;;;;;;;;3361127;42;20176;-58
2022/08/12 10:55:27;;;;;;;6.65;2.30;;;;;;;;;;3363201;42;20095;-58
2022/08/12 10:57:58;;;;;;;7.73;2.50;;;;;;;;;;3361676;42;20150;-58
2022/08/12 11:00:32;;;;;;;6.40;2.78;;;;;;;;;;3362781;42;20104;-57
2022/08/12 11:03:03;;;;;;;5.88;2.58;;;;;;;;;;3357910;42;20143;-57
2022/08/12 11:05:35;;;;;;;6.47;2.60;;;;;;;;;;3359357;42;20092;-58
2022/08/12 11:08:07;;;;;;;7.85;2.55;;;;;;;;;;3360858;42;20135;-59
2022/08/12 11:10:38;;;;;;;7.53;2.50;;;;;;;;;;3359883;42;20620;-58
2022/08/12 11:13:09;;;;;;;8.55;2.53;;;;;;;;;;3365461;42;20470;-55
2022/08/12 11:15:40;;;;;;;21.35;2.85;;;;;;;;;;3365039;42;20254;-56
2022/08/12 11:18:12;;;;;;;8.82;2.53;;;;;;;;;;3365823;42;20164;-56
2022/08/12 11:20:43;;;;;;;8.85;2.15;;;;;;;;;;3360412;42;20510;-56
2022/08/12 11:23:15;;;;;;;6.13;2.40;;;;;;;;;;3352820;42;20142;-56
2022/08/12 11:25:47;;;;;;;6.85;2.22;;;;;;;;;;3359029;42;20118;-55
2022/08/12 11:28:18;;;;;;;6.47;2.40;;;;;;;;;;3361274;42;20092;-56
2022/08/12 11:30:49;;;;;;;11.68;2.25;;;;;;;;;;3353126;42;20163;-56
2022/08/12 11:33:21;;;;;;;7.32;2.33;;;;;;;;;;3362109;42;20159;-55
2022/08/12 11:35:52;;;;;;;6.43;2.40;;;;;;;;;;3370380;42;20091;-56
2022/08/12 11:38:23;;;;;;;7.72;2.35;;;;;;;;;;3361923;42;20099;-55
2022/08/12 11:40:54;;;;;;;9.63;2.53;;;;;;;;;;3358123;42;20154;-59
2022/08/12 11:43:25;;;;;;;7.35;2.45;;;;;;;;;;3357768;42;20558;-55
2022/08/12 11:45:57;;;;;;;5.25;1.95;;;;;;;;;;3362431;42;20309;-57
2022/08/12 11:48:28;;;;;;;8.30;2.00;;;;;;;;;;3359166;42;20144;-57
2022/08/12 11:50:59;;;;;;;5.05;1.95;;;;;;;;;;3366777;42;20106;-52
2022/08/12 11:53:30;;;;;;;24.98;2.58;;;;;;;;;;3362730;42;20143;-55
2022/08/12 11:56:04;;;;;;;6.80;2.10;;;;;;;;;;3367901;42;20216;-56
2022/08/12 11:58:35;;;;;;;6.00;2.30;;;;;;;;;;3363947;42;20099;-56
2022/08/12 12:01:06;;;;;;;7.13;2.10;;;;;;;;;;3361555;42;20505;-57
2022/08/12 12:03:37;;;;;;;7.28;2.35;;;;;;;;;;3364769;42;20109;-55
2022/08/12 12:06:08;;;;;;;7.25;2.30;;;;;;;;;;3371722;42;20079;-57
2022/08/12 12:08:40;;;;;;;6.57;2.25;;;;;;;;;;3371452;42;20466;-56
2022/08/12 12:11:11;;;;;;;7.82;2.20;;;;;;;;;;3370351;42;20088;-57
2022/08/12 12:13:42;;;;;;;7.50;2.23;;;;;;;;;;3363410;42;20088;-57
2022/08/12 12:16:13;;;;;;;12.23;2.40;;;;;;;;;;3355909;42;20538;-56
2022/08/12 12:18:45;;;;;;;12.35;2.30;;;;;;;;;;3366623;42;20561;-53
2022/08/12 12:21:16;;;;;;;8.88;2.20;;;;;;;;;;3364177;42;20139;-57
2022/08/12 12:23:47;;;;;;;6.15;2.15;;;;;;;;;;3364401;42;20147;-54
2022/08/12 12:26:18;;;;;;;5.43;2.27;;;;;;;;;;3362550;42;20088;-55
2022/08/12 12:28:49;;;;;;;7.30;2.55;;;;;;;;;;3368757;42;20092;-55
2022/08/12 12:31:23;;;;;;;7.57;2.20;;;;;;;;;;3365835;42;20143;-56
2022/08/12 12:33:54;;;;;;;5.95;2.00;;;;;;;;;;3363915;42;20541;-57
2022/08/12 12:36:25;;;;;;;7.63;2.22;;;;;;;;;;3362660;42;20092;-57
2022/08/12 12:38:57;;;;;;;5.93;2.23;;;;;;;;;;3349580;42;20169;-52
2022/08/12 12:41:28;;;;;;;5.75;2.50;;;;;;;;;;3369931;42;20087;-58
2022/08/12 12:43:59;;;;;;;8.27;2.40;;;;;;;;;;3363742;42;20113;-56
2022/08/12 12:46:30;;;;;;;7.45;2.22;;;;;;;;;;3361058;42;20594;-58
2022/08/12 12:49:02;;;;;;;7.13;2.30;;;;;;;;;;3359559;42;20095;-55
2022/08/12 12:51:33;;;;;;;7.90;2.33;;;;;;;;;;3358858;42;20094;-54
2022/08/12 12:54:04;;;;;;;8.52;2.42;;;;;;;;;;3365562;42;20474;-58
2022/08/12 12:56:41;;;;;;;5.50;2.20;;;;;;;;;;3359308;42;20259;-58
2022/08/12 12:59:12;;;;;;;6.88;2.20;;;;;;;;;;3352506;42;20092;-57
2022/08/12 13:01:43;;;;;;;7.80;2.97;;;;;;;;;;3358604;42;20434;-57
2022/08/12 13:04:15;;;;;;;7.70;2.53;;;;;;;;;;3369400;42;20146;-56
2022/08/12 13:06:52;;;;;;;10.88;3.60;;;;;;;;;;3372589;42;20616;-56
2022/08/12 13:09:23;;;;;;;7.35;2.30;;;;;;;;;;3366860;42;20191;-57
2022/08/12 13:11:54;;;;;;;6.85;2.40;;;;;;;;;;3361309;42;20084;-59
2022/08/12 13:14:25;;;;;;;5.65;2.55;;;;;;;;;;3359955;42;20598;-58
2022/08/12 13:16:59;;;;;;;7.53;2.40;;;;;;;;;;3358271;42;20096;-56
2022/08/12 13:19:35;;;;;;;6.00;2.20;;;;;;;;;;3355765;42;20219;-58
2022/08/12 13:22:16;;;;;;;6.00;2.70;;;;;;;;;;3359589;42;20457;-57
2022/08/12 13:24:53;;;;;;;6.03;2.60;;;;;;;;;;3362096;42;20110;-56
2022/08/12 13:27:28;;;;;;;6.40;2.40;;;;;;;;;;3363680;42;20122;-57
2022/08/12 13:29:59;;;;;;;8.20;2.40;;;;;;;;;;3363806;42;20088;-58
2022/08/12 13:32:30;;;;;;;6.22;2.40;;;;;;;;;;3364813;42;20145;-57
2022/08/12 13:35:02;;;;;;;8.07;2.60;;;;;;;;;;3370597;42;20516;-57
2022/08/12 13:37:34;;;;;;;6.93;2.20;;;;;;;;;;3363758;42;20177;-56
2022/08/12 13:40:09;;;;;;;6.65;2.33;;;;;;;;;;3365298;42;20147;-57
2022/08/12 13:42:40;;;;;;;8.37;2.40;;;;;;;;;;3365597;42;20092;-57
2022/08/12 13:45:12;;;;;;;8.48;2.67;;;;;;;;;;3365465;42;20110;-56
2022/08/12 13:47:54;;;;;;;5.50;2.30;;;;;;;;;;3371300;42;20092;-55
2022/08/12 13:50:31;;;;;;;11.40;2.58;;;;;;;;;;3361180;42;20525;-55
2022/08/12 13:53:07;;;;;;;7.63;2.90;;;;;;;;;;3365597;42;20102;-56
2022/08/12 13:55:39;;;;;;;6.27;2.77;;;;;;;;;;3365835;42;20099;-57
2022/08/12 13:58:11;;;;;;;7.93;2.70;;;;;;;;;;3359577;42;20159;-55
2022/08/12 14:00:50;;;;;;;7.10;2.92;;;;;;;;;;3365496;42;20624;-58
2022/08/12 14:03:21;;;;;;;7.50;2.60;;;;;;;;;;3360650;42;20145;-54
2022/08/12 14:05:52;;;;;;;7.97;2.72;;;;;;;;;;3361778;42;20162;-56
2022/08/12 14:08:23;;;;;;;9.67;2.50;;;;;;;;;;3371965;42;20125;-58
2022/08/12 14:10:55;;;;;;;6.40;2.67;;;;;;;;;;3365387;42;20564;-55
2022/08/12 14:13:28;;;;;;;7.50;2.80;;;;;;;;;;3354815;42;20143;-58
2022/08/12 14:16:01;;;;;;;7.47;2.60;;;;;;;;;;3360696;42;20092;-57
2022/08/12 14:18:33;;;;;;;8.40;2.75;;;;;;;;;;3353655;42;20084;-53
2022/08/12 14:21:08;;;;;;;8.07;2.77;;;;;;;;;;3365958;42;20096;-57
2022/08/12 14:23:41;;;;;;;7.72;2.75;;;;;;;;;;3351546;42;20096;-56
2022/08/12 14:26:16;;;;;;;7.78;3.00;;;;;;;;;;3357711;42;20156;-55
2022/08/12 14:28:48;;;;;;;6.75;2.80;;;;;;;;;;3364479;42;20206;-54
2022/08/12 14:31:20;;;;;;;7.03;2.80;;;;;;;;;;3359757;42;20091;-56
2022/08/12 14:33:51;;;;;;;6.40;2.40;;;;;;;;;;3365530;42;20538;-56
2022/08/12 14:36:23;;;;;;;6.43;2.70;;;;;;;;;;3372417;42;20599;-58
2022/08/12 14:38:54;;;;;;;9.40;3.42;;;;;;;;;;3359020;42;20123;-57
2022/08/12 14:41:26;;;;;;;6.40;2.45;;;;;;;;;;3363827;42;20102;-55
2022/08/12 14:43:57;;;;;;;6.47;2.80;;;;;;;;;;3364450;42;20084;-56
2022/08/12 14:46:28;;;;;;;8.97;3.10;;;;;;;;;;3364510;42;20165;-57
2022/08/12 14:48:59;;;;;;;7.63;3.20;;;;;;;;;;3364747;42;20670;-57
2022/08/12 14:51:30;;;;;;;7.97;3.20;;;;;;;;;;3364761;42;20079;-57
2022/08/12 14:54:07;;;;;;;8.15;3.15;;;;;;;;;;3370880;42;20214;-57
2022/08/12 14:56:40;;;;;;;7.38;3.10;;;;;;;;;;3362475;42;20095;-56
2022/08/12 15:02:00;;;;;;;6.97;3.28;;;;;;;;;;3372196;42;20656;-57
2022/08/12 15:04:32;;;;;;;7.25;2.85;;;;;;;;;;3365180;42;20106;-57
2022/08/12 15:07:03;;;;;;;8.25;3.60;;;;;;;;;;3370781;42;20098;-56
2022/08/12 15:09:34;;;;;;;9.30;3.33;;;;;;;;;;3356204;42;20092;-56
2022/08/12 15:12:09;;;;;;;10.43;3.80;;;;;;;;;;3362102;42;20088;-58
2022/08/12 15:14:41;;;;;;;15.20;3.78;;;;;;;;;;3356158;42;20092;-55
2022/08/12 15:17:12;;;;;;;12.70;3.75;;;;;;;;;;3358029;42;20193;-54
2022/08/12 15:19:43;;;;;;;8.45;3.78;;;;;;;;;;3355402;42;20106;-56
2022/08/12 15:22:16;;;;;;;9.00;3.17;;;;;;;;;;3364806;42;20114;-58
2022/08/12 15:24:47;;;;;;;12.67;3.20;;;;;;;;;;3364928;42;20114;-56
2022/08/12 15:27:18;;;;;;;10.68;3.35;;;;;;;;;;3371766;42;20103;-56
2022/08/12 15:29:49;;;;;;;9.45;3.33;;;;;;;;;;3364833;42;20595;-56
2022/08/12 15:32:21;;;;;;;9.35;3.00;;;;;;;;;;3371915;42;20578;-57
2022/08/12 15:34:53;;;;;;;8.15;2.85;;;;;;;;;;3361207;42;20558;-57
2022/08/12 15:37:25;;;;;;;7.80;3.30;;;;;;;;;;3362552;42;20147;-46
2022/08/12 15:39:57;;;;;;;10.23;3.15;;;;;;;;;;3362765;42;20100;-46
2022/08/12 15:42:28;;;;;;;10.30;3.10;;;;;;;;;;3362120;42;20098;-47
2022/08/12 15:44:59;;;;;;;8.85;3.15;;;;;;;;;;3364275;42;20526;-47
2022/08/12 15:47:30;;;;;;;9.18;3.35;;;;;;;;;;3364756;42;20279;-47
2022/08/12 15:50:01;;;;;;;7.43;2.90;;;;;;;;;;3357954;42;20558;-47
2022/08/12 15:52:32;;;;;;;10.77;3.20;;;;;;;;;;3364035;42;20691;-45
2022/08/12 15:55:07;;;;;;;14.02;3.45;;;;;;;;;;3364580;42;20613;-49
2022/08/12 15:57:47;;;;;;;12.77;3.50;;;;;;;;;;3369837;42;20656;-48
2022/08/12 16:00:37;;;;;;;7.38;3.63;;;;;;;;;;3364266;42;20096;-51
2022/08/12 16:03:08;;;;;;;7.40;3.37;;;;;;;;;;3364159;42;20103;-49
2022/08/12 16:05:41;;;;;;;8.85;3.40;;;;;;;;;;3359390;42;20156;-48
2022/08/12 16:08:12;;;;;;;9.25;3.95;;;;;;;;;;3357730;42;20091;-47
2022/08/12 16:10:43;;;;;;;8.93;3.20;;;;;;;;;;3357002;42;20092;-47
2022/08/12 16:13:18;;;;;;;12.13;4.10;;;;;;;;;;3354294;42;20170;-50
2022/08/12 16:15:50;;;;;;;9.07;3.50;;;;;;;;;;3356035;42;20139;-50
2022/08/12 16:18:22;;;;;;;9.45;4.20;;;;;;;;;;3362637;42;20133;-47
2022/08/12 16:20:54;;;;;;;11.02;3.72;;;;;;;;;;3362640;42;20106;-48
2022/08/12 16:23:26;;;;;;;9.25;3.80;;;;;;;;;;3364313;42;20526;-51
2022/08/12 16:25:58;;;;;;;11.27;4.75;;;;;;;;;;3357601;42;20104;-51
2022/08/12 16:28:30;;;;;;;10.73;4.17;;;;;;;;;;3364381;42;20107;-51
2022/08/12 16:31:02;;;;;;;10.15;4.00;;;;;;;;;;3360818;42;20576;-50
2022/08/12 16:33:36;;;;;;;9.60;4.07;;;;;;;;;;3369676;42;20115;-50
2022/08/12 16:36:09;;;;;;;10.63;4.20;;;;;;;;;;3357965;42;20521;-49
2022/08/12 16:38:41;;;;;;;8.95;4.00;;;;;;;;;;3371257;42;20099;-48
2022/08/12 16:41:12;;;;;;;10.20;4.40;;;;;;;;;;3364155;42;20102;-56
2022/08/12 16:43:44;;;;;;;9.25;4.50;;;;;;;;;;3361052;42;20131;-55
2022/08/12 16:46:17;;;;;;;13.68;4.80;;;;;;;;;;3370600;42;20521;-57
2022/08/12 16:48:48;;;;;;;9.77;4.55;;;;;;;;;;3370005;42;20215;-56
2022/08/12 16:51:24;;;;;;;11.00;4.50;;;;;;;;;;3363386;42;20100;-56
2022/08/12 16:53:55;;;;;;;11.03;4.30;;;;;;;;;;3369951;42;20491;-56
2022/08/12 16:56:27;;;;;;;9.82;4.30;;;;;;;;;;3369222;42;20214;-56
2022/08/12 16:58:58;;;;;;;12.75;4.53;;;;;;;;;;3361600;42;20104;-55
2022/08/12 17:01:33;;;;;;;11.52;4.50;;;;;;;;;;3369015;42;20528;-55
2022/08/12 17:04:07;;;;;;;11.32;4.25;;;;;;;;;;3362038;42;20573;-56
2022/08/12 17:06:41;;;;;;;12.30;4.40;;;;;;;;;;3355553;42;20100;-52
2022/08/12 17:09:13;;;;;;;11.23;3.95;;;;;;;;;;3361106;42;20100;-55
2022/08/12 17:11:46;;;;;;;11.32;4.40;;;;;;;;;;3366317;42;20135;-57
2022/08/12 17:14:17;;;;;;;11.30;4.40;;;;;;;;;;3363303;42;20100;-51
2022/08/12 17:16:50;;;;;;;13.63;4.60;;;;;;;;;;3355501;42;20107;-55
2022/08/12 17:19:24;;;;;;;11.57;4.80;;;;;;;;;;3359731;42;20088;-53
2022/08/12 17:21:56;;;;;;;11.38;4.32;;;;;;;;;;3357673;42;20108;-56
2022/08/12 17:24:27;;;;;;;11.80;4.05;;;;;;;;;;3360294;42;20146;-58
2022/08/12 17:26:59;;;;;;;15.80;6.10;;;;;;;;;;3349757;42;20103;-53
2022/08/12 17:29:30;;;;;;;11.93;4.72;;;;;;;;;;3366031;42;20100;-56